Time;durP1;ratioP1;P1;durP2;ratioP2;P2;SDS_P1;SDS_P2;PMS_P1;PMS_P2;Temp;Humidity;BMP_temperature;BMP_pressure;BME280_temperature;BME280_humidity;BME280_pressure;Samples;Min_cycle;Max_cycle;Signal;HPM_P1;HPM_P2
2024/01/11 00:02:17;;;;;;;34.23;14.00;;;;;;;2.86;77.85;100447.06;4989854;28;20030;-75
2024/01/11 00:04:43;;;;;;;39.30;14.77;;;;;;;2.87;78.07;100454.94;4990137;28;20068;-76
2024/01/11 00:07:09;;;;;;;39.60;16.02;;;;;;;2.87;77.93;100454.94;4990322;28;20030;-75
2024/01/11 00:09:42;;;;;;;40.30;15.95;;;;;;;2.87;78.41;100449.75;4990195;28;20027;-78
2024/01/11 00:12:07;;;;;;;37.20;17.50;;;;;;;2.87;78.28;100452.34;4989818;28;20054;-75
2024/01/11 00:14:33;;;;;;;40.07;16.30;;;;;;;2.84;78.46;100454.84;4989737;28;20561;-74
2024/01/11 00:16:58;;;;;;;39.03;15.07;;;;;;;2.84;77.95;100453.94;4973980;28;20030;-75
2024/01/11 00:19:24;;;;;;;35.78;15.82;;;;;;;2.84;78.55;100456.56;4972463;28;20030;-75
2024/01/11 00:21:49;;;;;;;38.33;14.57;;;;;;;2.81;78.83;100459.97;4989868;28;20040;-74
2024/01/11 00:24:15;;;;;;;34.03;15.37;;;;;;;2.80;78.33;100452.09;4993796;28;20101;-75
2024/01/11 00:26:41;;;;;;;32.30;15.43;;;;;;;2.79;78.17;100451.22;4995075;28;20509;-78
2024/01/11 00:29:07;;;;;;;37.80;14.55;;;;;;;2.78;78.55;100462.47;4989549;28;20018;-77
2024/01/11 00:31:32;;;;;;;36.10;15.02;;;;;;;2.79;78.44;100461.63;4989949;28;20031;-78
2024/01/11 00:33:58;;;;;;;33.13;14.13;;;;;;;2.79;78.81;100461.63;4990037;28;20097;-79
2024/01/11 00:36:23;;;;;;;36.13;15.33;;;;;;;2.81;78.34;100459.06;4989928;28;20022;-78
2024/01/11 00:38:49;;;;;;;32.78;14.25;;;;;;;2.79;78.51;100461.63;4989970;28;20030;-79
2024/01/11 00:41:14;;;;;;;35.60;14.33;;;;;;;2.79;78.31;100466.84;4989587;28;20022;-75
2024/01/11 00:43:40;;;;;;;34.93;14.53;;;;;;;2.77;78.89;100475.41;4989731;28;20161;-76
2024/01/11 00:46:05;;;;;;;38.45;15.40;;;;;;;2.75;78.99;100480.56;4981807;28;20049;-77
2024/01/11 00:48:31;;;;;;;41.03;16.57;;;;;;;2.73;79.04;100477.03;5009358;28;20034;-76
2024/01/11 00:50:56;;;;;;;36.43;16.27;;;;;;;2.70;79.41;100475.22;5008547;28;20026;-76
2024/01/11 00:53:22;;;;;;;39.55;16.35;;;;;;;2.65;79.40;100473.31;4993140;28;20023;-78
2024/01/11 00:55:47;;;;;;;39.23;15.63;;;;;;;2.62;79.44;100468.03;4993380;28;20372;-76
2024/01/11 00:58:12;;;;;;;40.33;16.33;;;;;;;2.63;79.22;100469.78;4975472;28;20030;-79
2024/01/11 01:00:38;;;;;;;40.40;15.90;;;;;;;2.64;79.31;100476.75;4992807;28;20030;-80
2024/01/11 01:03:03;;;;;;;36.03;14.80;;;;;;;2.64;79.00;100475.00;4992929;28;20037;-80
2024/01/11 01:05:29;;;;;;;40.38;16.20;;;;;;;2.65;79.14;100473.31;4993087;28;20022;-77
2024/01/11 01:07:54;;;;;;;38.60;17.37;;;;;;;2.66;79.57;100464.69;4992905;28;20031;-77
2024/01/11 01:10:20;;;;;;;42.07;15.70;;;;;;;2.67;78.97;100475.13;4993102;28;20052;-81
2024/01/11 01:12:45;;;;;;;39.13;15.93;;;;;;;2.66;79.69;100468.19;4993007;28;20034;-81
2024/01/11 01:15:11;;;;;;;37.30;15.53;;;;;;;2.67;79.44;100469.03;4996195;28;20345;-79
2024/01/11 01:17:37;;;;;;;44.97;18.07;;;;;;;2.65;79.38;100468.09;5012376;28;20025;-78
2024/01/11 01:20:03;;;;;;;43.45;17.02;;;;;;;2.66;79.46;100470.78;4994738;28;20022;-77
2024/01/11 01:22:28;;;;;;;46.17;18.55;;;;;;;2.64;79.52;100471.56;5012222;28;20473;-78
2024/01/11 01:24:54;;;;;;;39.50;17.83;;;;;;;2.62;79.41;100473.22;5010438;28;20018;-77
2024/01/11 01:27:19;;;;;;;40.87;16.80;;;;;;;2.63;79.23;100474.97;4993024;28;20056;-78
2024/01/11 01:29:44;;;;;;;40.23;17.47;;;;;;;2.62;79.67;100474.09;4992349;28;20030;-80
2024/01/11 01:32:10;;;;;;;37.47;16.73;;;;;;;2.62;79.27;100473.22;4992519;28;20034;-78
2024/01/11 01:34:35;;;;;;;38.00;15.97;;;;;;;2.63;79.41;100480.19;4992760;28;20027;-76
2024/01/11 01:37:01;;;;;;;37.87;16.07;;;;;;;2.64;79.50;100481.94;4992262;28;20030;-77
2024/01/11 01:39:26;;;;;;;36.53;16.30;;;;;;;2.62;79.94;100483.63;4992408;28;20023;-77
2024/01/11 01:41:51;;;;;;;40.73;16.83;;;;;;;2.60;79.78;100486.16;4992274;28;20023;-77
2024/01/11 01:44:17;;;;;;;41.80;16.67;;;;;;;2.60;79.90;100490.50;4991853;28;20165;-79
2024/01/11 01:46:42;;;;;;;38.63;16.77;;;;;;;2.61;79.46;100489.66;5006599;28;20038;-77
2024/01/11 01:49:09;;;;;;;38.27;16.80;;;;;;;2.62;79.97;100481.88;5011793;28;20026;-77
2024/01/11 01:51:35;;;;;;;38.08;15.90;;;;;;;2.64;79.73;100482.81;5005801;28;20118;-77
2024/01/11 01:54:02;;;;;;;41.50;17.10;;;;;;;2.67;79.75;100495.03;4992197;28;20110;-77
2024/01/11 01:56:28;;;;;;;42.08;17.25;;;;;;;2.66;79.50;100486.38;4992236;28;20030;-76
2024/01/11 01:58:54;;;;;;;39.92;17.70;;;;;;;2.65;79.93;100499.31;4991774;28;20056;-77
2024/01/11 02:01:21;;;;;;;41.70;16.77;;;;;;;2.65;79.57;100499.31;4975013;28;20502;-78
2024/01/11 02:03:50;;;;;;;40.65;16.60;;;;;;;2.63;79.28;100496.66;5010850;28;20076;-78
2024/01/11 02:06:15;;;;;;;42.37;16.47;;;;;;;2.63;79.78;100490.59;4992341;28;20368;-78
2024/01/11 02:08:43;;;;;;;38.90;16.63;;;;;;;2.62;80.11;100497.47;4991851;28;20080;-77
2024/01/11 02:11:10;;;;;;;44.03;17.83;;;;;;;2.61;80.16;100494.84;4991903;28;20034;-77
2024/01/11 02:13:36;;;;;;;42.33;17.90;;;;;;;2.62;80.06;100507.03;4991840;28;20018;-77
2024/01/11 02:16:01;;;;;;;37.28;16.20;;;;;;;2.63;80.05;100522.66;5002095;28;20525;-77
2024/01/11 02:18:27;;;;;;;40.50;16.60;;;;;;;2.64;79.97;100514.00;5011107;28;20533;-77
2024/01/11 02:20:52;;;;;;;36.67;16.37;;;;;;;2.65;80.12;100514.91;5011207;28;20186;-77
2024/01/11 02:23:21;;;;;;;40.47;16.27;;;;;;;2.66;80.13;100517.56;5010840;28;20030;-78
2024/01/11 02:25:46;;;;;;;39.05;16.73;;;;;;;2.66;80.18;100519.28;5002120;28;20061;-77
2024/01/11 02:28:12;;;;;;;39.27;16.73;;;;;;;2.64;80.27;100521.81;4994821;28;20135;-77
2024/01/11 02:30:37;;;;;;;36.63;15.70;;;;;;;2.65;80.30;100525.31;5010800;28;20502;-77
2024/01/11 02:33:05;;;;;;;39.25;15.27;;;;;;;2.67;80.13;100528.84;5000402;28;20120;-77
2024/01/11 02:35:31;;;;;;;37.65;16.40;;;;;;;2.68;80.24;100526.31;4991464;28;20034;-77
2024/01/11 02:37:59;;;;;;;38.53;16.50;;;;;;;2.71;79.71;100528.09;4991370;28;20022;-77
2024/01/11 02:40:26;;;;;;;40.22;16.52;;;;;;;2.73;79.99;100522.13;4991286;28;20093;-76
2024/01/11 02:42:51;;;;;;;39.53;16.02;;;;;;;2.73;79.64;100526.44;4991311;28;20037;-77
2024/01/11 02:45:18;;;;;;;38.03;15.67;;;;;;;2.73;79.85;100526.44;4975559;28;20023;-77
2024/01/11 02:47:44;;;;;;;39.90;15.82;;;;;;;2.74;79.61;100530.81;5010839;28;20037;-76
2024/01/11 02:50:11;;;;;;;36.23;14.67;;;;;;;2.74;79.62;100536.00;5010737;28;20026;-77
2024/01/11 02:52:37;;;;;;;38.30;15.73;;;;;;;2.74;79.72;100528.19;5001469;28;20061;-79
2024/01/11 02:55:03;;;;;;;42.35;16.95;;;;;;;2.77;79.80;100519.63;4996071;28;20054;-76
2024/01/11 02:57:28;;;;;;;36.47;16.23;;;;;;;2.75;79.67;100524.75;4991808;28;20022;-74
2024/01/11 02:59:53;;;;;;;42.17;15.70;;;;;;;2.76;80.04;100529.13;4990770;28;20047;-75
2024/01/11 03:02:19;;;;;;;36.95;15.95;;;;;;;2.77;79.96;100536.09;4999552;28;20101;-75
2024/01/11 03:04:44;;;;;;;38.73;16.10;;;;;;;2.76;79.68;100534.31;5010292;28;20494;-76
2024/01/11 03:07:09;;;;;;;36.00;15.40;;;;;;;2.74;79.90;100530.81;5010427;28;20060;-77
2024/01/11 03:09:36;;;;;;;38.70;15.70;;;;;;;2.76;79.71;100533.47;5010466;28;20666;-76
2024/01/11 03:12:01;;;;;;;35.97;15.63;;;;;;;2.76;79.80;100530.84;5010258;28;20554;-77
2024/01/11 03:14:27;;;;;;;37.40;16.23;;;;;;;2.74;79.63;100530.81;5009958;28;20034;-77
2024/01/11 03:16:52;;;;;;;37.23;15.17;;;;;;;2.72;79.96;100533.38;4991637;28;20034;-77
2024/01/11 03:19:18;;;;;;;34.28;15.00;;;;;;;2.72;80.06;100529.88;4990745;28;20026;-78
2024/01/11 03:21:43;;;;;;;35.90;14.80;;;;;;;2.72;80.33;100533.38;4990399;28;20434;-75
2024/01/11 03:24:09;;;;;;;38.83;15.07;;;;;;;2.71;80.33;100535.91;4993690;28;20060;-77
2024/01/11 03:26:34;;;;;;;33.07;14.37;;;;;;;2.74;80.19;100536.00;4996344;28;20741;-77
2024/01/11 03:29:00;;;;;;;34.03;12.67;;;;;;;2.75;80.05;100535.16;4989949;28;20025;-77
2024/01/11 03:31:25;;;;;;;32.20;13.17;;;;;;;2.77;80.09;100532.63;4990661;28;20026;-77
2024/01/11 03:33:50;;;;;;;31.30;13.13;;;;;;;2.76;80.05;100534.31;4990681;28;20071;-78
2024/01/11 03:36:16;;;;;;;31.07;13.33;;;;;;;2.77;80.38;100530.03;4989074;28;20409;-76
2024/01/11 03:38:41;;;;;;;34.37;13.50;;;;;;;2.76;80.19;100531.72;4990424;28;20034;-77
2024/01/11 03:41:09;;;;;;;32.93;13.90;;;;;;;2.76;80.16;100536.06;4990584;28;20026;-76
2024/01/11 03:43:36;;;;;;;28.48;11.55;;;;;;;2.74;79.84;100530.81;4990338;28;20037;-77
2024/01/11 03:46:01;;;;;;;29.95;12.02;;;;;;;2.75;80.15;100531.69;4989632;28;20157;-78
2024/01/11 03:48:27;;;;;;;27.17;11.90;;;;;;;2.75;80.10;100537.75;4990259;28;20109;-77
2024/01/11 03:50:52;;;;;;;26.53;11.43;;;;;;;2.71;79.83;100539.41;4990287;28;20403;-77
2024/01/11 03:53:17;;;;;;;26.50;10.95;;;;;;;2.71;79.86;100541.09;4990312;28;20035;-77
2024/01/11 03:55:43;;;;;;;27.87;12.40;;;;;;;2.72;80.29;100542.88;4990321;28;20117;-77
2024/01/11 03:58:08;;;;;;;27.07;11.73;;;;;;;2.71;79.92;100535.91;4990162;28;20030;-80
2024/01/11 04:00:33;;;;;;;28.33;11.40;;;;;;;2.70;80.37;100539.34;4989714;28;20598;-76
2024/01/11 04:02:59;;;;;;;28.60;12.17;;;;;;;2.68;80.08;100541.91;5003959;28;20516;-77
2024/01/11 04:05:24;;;;;;;29.88;11.68;;;;;;;2.67;80.08;100534.94;5009655;28;20044;-77
2024/01/11 04:07:50;;;;;;;25.73;11.27;;;;;;;2.68;80.46;100551.41;5009622;28;20077;-77
2024/01/11 04:10:19;;;;;;;27.73;11.93;;;;;;;2.68;80.03;100554.00;5009716;28;20390;-75
2024/01/11 04:12:44;;;;;;;28.48;10.90;;;;;;;2.67;79.80;100545.34;5009625;28;20049;-76
2024/01/11 04:15:13;;;;;;;27.60;11.73;;;;;;;2.66;80.34;100551.38;5004707;28;20030;-76
2024/01/11 04:17:39;;;;;;;28.75;11.27;;;;;;;2.64;80.43;100549.56;4990160;28;20035;-80
2024/01/11 04:20:06;;;;;;;27.48;11.60;;;;;;;2.62;80.42;100554.69;4989855;28;20026;-77
2024/01/11 04:22:32;;;;;;;28.03;11.43;;;;;;;2.60;80.11;100550.28;4990032;28;20027;-77
2024/01/11 04:24:57;;;;;;;25.05;10.00;;;;;;;2.58;80.55;100551.13;4993833;28;20053;-77
2024/01/11 04:27:22;;;;;;;24.13;10.30;;;;;;;2.58;80.30;100551.13;4991936;28;20042;-76
2024/01/11 04:29:48;;;;;;;25.33;11.07;;;;;;;2.58;80.49;100551.13;4993504;28;20089;-78
2024/01/11 04:32:13;;;;;;;24.77;9.60;;;;;;;2.57;80.32;100545.84;4993679;28;20389;-80
2024/01/11 04:34:39;;;;;;;27.15;11.05;;;;;;;2.57;80.26;100551.97;4976175;28;20030;-80
2024/01/11 04:37:05;;;;;;;26.63;10.77;;;;;;;2.53;80.60;100557.91;4993652;28;20574;-80
2024/01/11 04:39:31;;;;;;;25.35;10.43;;;;;;;2.52;79.93;100566.50;4993507;28;20030;-76
2024/01/11 04:41:56;;;;;;;23.20;10.40;;;;;;;2.52;80.52;100565.63;4993543;28;20040;-76
2024/01/11 04:44:22;;;;;;;24.83;10.50;;;;;;;2.51;80.23;100567.31;4993096;28;20061;-76
2024/01/11 04:46:47;;;;;;;22.20;9.50;;;;;;;2.53;79.96;100555.28;4993485;28;20041;-79
2024/01/11 04:49:12;;;;;;;24.90;10.10;;;;;;;2.54;80.46;100559.66;4993433;28;20026;-76
2024/01/11 04:51:38;;;;;;;20.87;8.80;;;;;;;2.55;79.87;100561.44;4993209;28;20041;-76
2024/01/11 04:54:03;;;;;;;24.53;10.27;;;;;;;2.56;80.36;100568.38;4993241;28;20031;-78
2024/01/11 04:56:29;;;;;;;22.20;10.17;;;;;;;2.56;80.58;100573.59;4993416;28;20026;-76
2024/01/11 04:58:55;;;;;;;23.00;9.73;;;;;;;2.56;79.85;100578.78;4992781;28;20666;-75
2024/01/11 05:01:21;;;;;;;25.60;10.40;;;;;;;2.56;79.88;100573.59;4993711;28;20182;-75
2024/01/11 05:03:47;;;;;;;25.23;10.13;;;;;;;2.58;79.94;100576.22;5012530;28;20030;-75
2024/01/11 05:06:17;;;;;;;25.38;9.90;;;;;;;2.54;79.91;100570.06;5012504;28;20500;-75
2024/01/11 05:08:44;;;;;;;21.52;9.35;;;;;;;2.55;79.96;100577.03;5012683;28;20022;-75
2024/01/11 05:11:18;;;;;;;23.30;8.87;;;;;;;2.56;79.83;100578.78;5012540;28;20026;-79
2024/01/11 05:13:45;;;;;;;22.95;9.57;;;;;;;2.58;79.84;100584.03;5012308;28;20041;-79
2024/01/11 05:16:29;;;;;;;23.35;10.05;;;;;;;2.58;79.94;100587.53;5007426;28;20113;-80
2024/01/11 05:18:56;;;;;;;20.75;9.13;;;;;;;2.55;79.90;100582.22;5000133;28;20034;-78
2024/01/11 05:21:23;;;;;;;22.95;9.73;;;;;;;2.53;80.37;100589.09;4992778;28;20518;-74
2024/01/11 05:23:48;;;;;;;22.67;10.03;;;;;;;2.52;79.82;100592.50;4975595;28;20031;-80
2024/01/11 05:26:15;;;;;;;24.52;10.45;;;;;;;2.51;79.87;100593.31;5001279;28;20022;-78
2024/01/11 05:28:41;;;;;;;23.70;10.55;;;;;;;2.51;79.99;100597.66;4992655;28;20376;-81
2024/01/11 05:31:11;;;;;;;22.40;9.83;;;;;;;2.51;80.29;100600.25;4992431;28;20034;-79
2024/01/11 05:33:37;;;;;;;24.67;10.27;;;;;;;2.51;80.61;100601.13;4992681;28;20101;-77
2024/01/11 05:36:03;;;;;;;24.35;10.73;;;;;;;2.49;80.22;100600.19;4992639;28;20030;-78
2024/01/11 05:38:29;;;;;;;21.63;9.73;;;;;;;2.46;79.92;100597.47;4991694;28;20025;-76
2024/01/11 05:40:54;;;;;;;22.20;10.38;;;;;;;2.46;79.81;100601.81;4992487;28;20026;-77
2024/01/11 05:43:19;;;;;;;20.87;9.50;;;;;;;2.44;80.08;100599.16;4992434;28;20034;-77
2024/01/11 05:45:45;;;;;;;23.60;10.10;;;;;;;2.43;80.18;100593.09;4992038;28;20080;-76
2024/01/11 05:48:11;;;;;;;21.67;9.13;;;;;;;2.43;80.47;100602.59;5007920;28;20520;-76
2024/01/11 05:50:36;;;;;;;23.58;9.95;;;;;;;2.43;80.58;100598.28;4997888;28;20022;-77
2024/01/11 05:53:02;;;;;;;20.40;9.10;;;;;;;2.44;80.31;100609.53;4992080;28;20038;-77
2024/01/11 05:55:28;;;;;;;23.67;10.30;;;;;;;2.44;80.41;100609.53;4992357;28;20034;-77
2024/01/11 05:57:53;;;;;;;22.80;10.03;;;;;;;2.44;80.13;100601.75;4989894;28;20080;-77
2024/01/11 06:00:19;;;;;;;23.30;9.63;;;;;;;2.44;79.91;100612.16;4971606;28;20062;-77
2024/01/11 06:02:44;;;;;;;24.30;9.67;;;;;;;2.44;79.95;100619.94;4990764;28;20033;-80
2024/01/11 06:05:09;;;;;;;21.90;9.70;;;;;;;2.44;79.77;100614.75;4991850;28;20045;-80
2024/01/11 06:07:35;;;;;;;26.10;11.23;;;;;;;2.43;80.17;100619.06;4989517;28;20034;-79
2024/01/11 06:10:05;;;;;;;27.60;10.37;;;;;;;2.44;79.89;100619.94;4990136;28;20406;-78
2024/01/11 06:12:31;;;;;;;25.75;10.90;;;;;;;2.43;79.86;100618.19;4991118;28;20046;-79
2024/01/11 06:14:57;;;;;;;24.83;10.17;;;;;;;2.44;80.24;100625.16;4991298;28;20048;-77
2024/01/11 06:17:23;;;;;;;24.58;10.15;;;;;;;2.43;80.38;100612.97;4990699;28;20152;-79
2024/01/11 06:19:49;;;;;;;23.90;10.25;;;;;;;2.44;80.15;100632.94;4974192;28;20053;-77
2024/01/11 06:22:14;;;;;;;25.47;10.50;;;;;;;2.43;79.89;100628.56;4987044;28;20445;-79
2024/01/11 06:24:39;;;;;;;23.50;10.07;;;;;;;2.42;79.95;100632.91;4989448;28;20026;-84
2024/01/11 06:27:05;;;;;;;23.20;10.60;;;;;;;2.43;80.23;100638.97;4994254;28;20030;-77
2024/01/11 06:29:30;;;;;;;28.17;12.60;;;;;;;2.42;79.94;100635.50;4999633;28;20108;-80
2024/01/11 06:31:55;;;;;;;26.20;11.67;;;;;;;2.41;79.90;100635.44;5011007;28;20022;-74
2024/01/11 06:34:21;;;;;;;28.40;11.63;;;;;;;2.39;80.07;100642.31;4996131;28;20026;-78
2024/01/11 06:36:46;;;;;;;28.95;12.15;;;;;;;2.38;80.21;100643.13;4991266;28;20041;-75
2024/01/11 06:39:12;;;;;;;30.37;12.33;;;;;;;2.39;80.01;100647.50;5004520;28;20076;-80
2024/01/11 06:41:38;;;;;;;30.40;12.93;;;;;;;2.38;80.46;100648.34;5007912;28;20532;-77
2024/01/11 06:44:04;;;;;;;31.17;13.52;;;;;;;2.37;80.36;100654.34;4982000;28;20034;-77
2024/01/11 06:46:29;;;;;;;31.30;12.33;;;;;;;2.36;80.47;100661.25;4993944;28;20653;-77
2024/01/11 06:48:54;;;;;;;31.90;12.82;;;;;;;2.37;79.81;100664.75;4972579;28;20426;-77
2024/01/11 06:51:23;;;;;;;30.77;12.87;;;;;;;2.38;80.39;100666.53;4997058;28;20112;-77
2024/01/11 06:53:49;;;;;;;32.50;12.23;;;;;;;2.38;80.35;100666.53;5007113;28;20022;-77
2024/01/11 06:56:16;;;;;;;28.37;12.10;;;;;;;2.38;79.98;100677.78;4995610;28;20037;-77
2024/01/11 06:58:43;;;;;;;31.50;12.57;;;;;;;2.41;80.39;100677.03;5005745;28;20109;-78
2024/01/11 07:01:08;;;;;;;28.77;13.27;;;;;;;2.42;80.02;100676.19;4988815;28;20033;-76
2024/01/11 07:03:34;;;;;;;26.47;11.40;;;;;;;2.42;80.28;100681.41;4994701;28;20431;-77
2024/01/11 07:05:59;;;;;;;26.43;11.27;;;;;;;2.44;80.17;100682.31;4995619;28;20029;-77
2024/01/11 07:08:24;;;;;;;29.17;12.02;;;;;;;2.44;79.69;100682.31;4998829;28;20042;-77
2024/01/11 07:10:50;;;;;;;25.00;10.27;;;;;;;2.46;79.84;100679.81;4995246;28;20045;-77
2024/01/11 07:13:16;;;;;;;24.00;10.13;;;;;;;2.48;80.13;100681.59;4991524;28;20125;-77
2024/01/11 07:15:45;;;;;;;23.08;9.68;;;;;;;2.50;79.64;100692.94;4994525;28;20026;-76
2024/01/11 07:18:11;;;;;;;25.20;10.35;;;;;;;2.50;80.12;100695.53;5006579;28;20116;-76
2024/01/11 07:20:37;;;;;;;25.67;10.77;;;;;;;2.51;80.02;100693.84;5006817;28;20053;-78
2024/01/11 07:23:02;;;;;;;27.38;10.60;;;;;;;2.48;79.95;100694.59;4996657;28;20033;-77
2024/01/11 07:25:27;;;;;;;23.00;9.90;;;;;;;2.47;79.69;100698.03;4994328;28;20441;-78
2024/01/11 07:27:53;;;;;;;24.43;10.07;;;;;;;2.47;80.12;100703.22;4999370;28;20550;-79
2024/01/11 07:30:19;;;;;;;25.23;10.73;;;;;;;2.48;79.75;100699.81;4993245;28;20034;-78
2024/01/11 07:32:44;;;;;;;25.17;10.90;;;;;;;2.48;79.79;100705.00;4991397;28;20034;-78
2024/01/11 07:35:10;;;;;;;26.93;11.17;;;;;;;2.49;79.99;100705.91;4999603;28;20061;-79
2024/01/11 07:37:36;;;;;;;25.15;10.40;;;;;;;2.48;80.02;100710.19;5004512;28;20060;-78
2024/01/11 07:40:02;;;;;;;25.27;11.25;;;;;;;2.49;79.67;100717.16;5003793;28;20029;-77
2024/01/11 07:42:28;;;;;;;24.07;10.60;;;;;;;2.49;80.02;100724.09;4996286;28;20084;-77
2024/01/11 07:44:53;;;;;;;25.73;10.77;;;;;;;2.50;79.91;100731.94;5001413;28;20026;-76
2024/01/11 07:47:18;;;;;;;25.87;10.87;;;;;;;2.52;79.54;100727.66;5001364;28;20382;-76
2024/01/11 07:49:44;;;;;;;34.13;13.85;;;;;;;2.53;79.86;100729.47;5009488;28;20441;-77
2024/01/11 07:52:09;;;;;;;30.07;12.30;;;;;;;2.52;79.66;100725.06;4999139;28;20113;-76
2024/01/11 07:54:35;;;;;;;28.80;11.60;;;;;;;2.55;79.32;100730.41;4990218;28;20031;-77
2024/01/11 07:57:02;;;;;;;31.67;13.43;;;;;;;2.57;79.34;100728.75;4990118;28;20026;-77
2024/01/11 07:59:32;;;;;;;27.95;12.10;;;;;;;2.60;78.99;100743.56;4996742;28;20073;-76
2024/01/11 08:01:57;;;;;;;25.52;11.30;;;;;;;2.63;79.65;100735.00;5011114;28;20489;-77
2024/01/11 08:04:23;;;;;;;25.70;11.20;;;;;;;2.69;79.60;100736.09;5007503;28;20056;-77
2024/01/11 08:06:48;;;;;;;23.73;11.00;;;;;;;2.81;79.25;100742.56;5004539;28;20113;-77
2024/01/11 08:09:13;;;;;;;26.47;11.27;;;;;;;2.94;78.80;100746.47;5007515;28;20513;-77
2024/01/11 08:11:41;;;;;;;24.67;11.47;;;;;;;3.05;78.67;100739.03;4995711;28;20031;-78
2024/01/11 08:14:06;;;;;;;22.60;10.45;;;;;;;3.16;78.38;100748.97;4996979;28;20018;-79
2024/01/11 08:16:32;;;;;;;27.30;11.60;;;;;;;3.26;77.98;100746.72;4998032;28;20030;-76
2024/01/11 08:18:57;;;;;;;23.98;10.88;;;;;;;3.34;77.73;100753.03;4995682;28;20388;-80
2024/01/11 08:21:22;;;;;;;24.87;10.90;;;;;;;3.40;77.51;100758.44;4987789;28;20599;-78
2024/01/11 08:23:48;;;;;;;24.00;10.70;;;;;;;3.47;77.30;100766.44;5002885;28;20597;-80
2024/01/11 08:26:14;;;;;;;24.85;11.48;;;;;;;3.50;76.92;100764.84;5004396;28;20025;-76
2024/01/11 08:28:40;;;;;;;23.08;10.10;;;;;;;3.59;77.16;100766.88;5010036;28;20029;-76
2024/01/11 08:31:07;;;;;;;24.03;11.73;;;;;;;3.66;77.07;100765.34;4983981;28;20026;-79
2024/01/11 08:33:32;;;;;;;25.85;11.13;;;;;;;3.72;76.96;100769.03;4999754;28;20065;-80
2024/01/11 08:35:58;;;;;;;25.00;10.50;;;;;;;3.82;76.94;100777.16;5005103;28;20102;-80
2024/01/11 08:38:24;;;;;;;24.45;10.43;;;;;;;3.91;76.85;100772.22;4996626;28;20518;-79
2024/01/11 08:40:50;;;;;;;25.48;10.15;;;;;;;3.99;76.21;100775.97;4999725;28;20072;-76
2024/01/11 08:43:15;;;;;;;24.23;10.63;;;;;;;4.08;76.72;100777.94;4998306;28;20049;-76
2024/01/11 08:45:41;;;;;;;24.70;10.77;;;;;;;4.17;76.52;100774.75;5002389;28;20422;-79
2024/01/11 08:48:06;;;;;;;21.25;10.02;;;;;;;4.25;75.98;100783.69;5004351;28;20038;-76
2024/01/11 08:50:32;;;;;;;22.67;9.77;;;;;;;4.31;76.48;100781.25;5010373;28;20117;-76
2024/01/11 08:52:58;;;;;;;21.02;9.55;;;;;;;4.38;75.71;100791.88;4999159;28;20038;-78
2024/01/11 08:55:24;;;;;;;24.00;9.77;;;;;;;4.46;75.62;100795.56;4999242;28;20065;-76
2024/01/11 08:57:49;;;;;;;17.42;7.95;;;;;;;4.51;75.81;100799.22;4993391;28;20026;-76
2024/01/11 09:00:18;;;;;;;19.43;8.93;;;;;;;4.54;75.37;100788.88;4995306;28;20095;-76
2024/01/11 09:02:44;;;;;;;18.65;9.20;;;;;;;4.53;76.02;100796.66;5003784;28;20060;-77
2024/01/11 09:05:09;;;;;;;18.25;8.57;;;;;;;4.46;75.33;100798.19;5005150;28;20112;-76
2024/01/11 09:07:35;;;;;;;19.73;9.47;;;;;;;4.42;75.56;100798.94;4994844;28;20027;-80
2024/01/11 09:10:00;;;;;;;21.53;9.20;;;;;;;4.38;75.46;100805.81;5002575;28;20128;-79
2024/01/11 09:12:25;;;;;;;18.77;8.57;;;;;;;4.31;75.93;100804.72;4991642;28;20042;-76
2024/01/11 09:14:51;;;;;;;19.53;8.20;;;;;;;4.26;75.83;100819.34;5005130;28;20093;-80
2024/01/11 09:17:16;;;;;;;18.27;9.27;;;;;;;4.24;76.19;100814.91;4992776;28;20033;-76
2024/01/11 09:19:41;;;;;;;22.40;10.00;;;;;;;4.21;75.70;100810.47;5001902;28;20319;-76
2024/01/11 09:22:09;;;;;;;21.53;9.60;;;;;;;4.19;75.91;100806.94;5000027;28;20072;-77
2024/01/11 09:24:35;;;;;;;23.00;10.35;;;;;;;4.20;75.64;100811.31;4999335;28;20041;-79
2024/01/11 09:27:01;;;;;;;23.75;10.77;;;;;;;4.21;75.71;100796.56;4994445;28;20030;-80
2024/01/11 09:29:27;;;;;;;22.60;10.93;;;;;;;4.21;75.48;100802.66;5006674;28;20029;-79
2024/01/11 09:31:53;;;;;;;20.73;9.88;;;;;;;4.28;75.50;100796.81;5010035;28;20030;-76
2024/01/11 09:34:18;;;;;;;22.93;10.03;;;;;;;4.42;75.47;100796.31;5007225;28;20034;-76
2024/01/11 09:36:45;;;;;;;23.33;10.63;;;;;;;4.62;75.51;100798.66;5005328;28;20036;-77
2024/01/11 09:39:13;;;;;;;20.95;9.23;;;;;;;4.79;74.62;100801.72;4999944;28;20033;-76
2024/01/11 09:41:43;;;;;;;19.02;8.63;;;;;;;4.98;74.75;100810.97;5001653;28;20491;-76
2024/01/11 09:44:09;;;;;;;18.13;8.85;;;;;;;4.99;73.77;100820.56;5001455;28;20036;-78
2024/01/11 09:46:34;;;;;;;19.70;7.90;;;;;;;4.91;73.66;100817.75;5003604;28;20125;-76
2024/01/11 09:49:02;;;;;;;21.33;8.75;;;;;;;4.91;73.33;100822.06;4999475;28;20025;-80
2024/01/11 09:51:29;;;;;;;17.97;8.13;;;;;;;4.89;73.37;100835.97;4993271;28;20524;-76
2024/01/11 09:53:58;;;;;;;18.30;8.35;;;;;;;4.89;73.34;100835.97;4982573;28;20022;-76
2024/01/11 09:56:24;;;;;;;17.00;6.80;;;;;;;4.89;73.09;100835.09;4993950;28;20034;-76
2024/01/11 09:58:50;;;;;;;16.70;7.50;;;;;;;4.92;73.55;100842.09;4992500;28;20045;-75
2024/01/11 10:01:16;;;;;;;19.40;8.07;;;;;;;4.95;73.34;100840.47;4982233;28;20029;-77
2024/01/11 10:03:42;;;;;;;19.58;8.63;;;;;;;5.01;73.78;100834.56;5001104;28;20112;-76
2024/01/11 10:06:09;;;;;;;17.92;8.20;;;;;;;5.08;73.03;100838.22;4990314;28;20101;-80
2024/01/11 10:08:35;;;;;;;20.58;9.18;;;;;;;5.13;72.28;100841.84;5007988;28;20033;-78
2024/01/11 10:11:00;;;;;;;21.93;9.00;;;;;;;5.19;72.96;100839.38;4994554;28;20643;-79
2024/01/11 10:13:30;;;;;;;21.90;9.60;;;;;;;5.28;71.64;100837.00;4992436;28;20030;-77
2024/01/11 10:16:09;;;;;;;20.77;9.45;;;;;;;5.32;71.48;100836.28;5004341;28;20026;-76
2024/01/11 10:18:35;;;;;;;21.75;10.93;;;;;;;5.39;71.26;100837.28;4992207;28;20022;-76
2024/01/11 10:21:01;;;;;;;21.38;9.20;;;;;;;5.51;71.70;100841.09;4992250;28;20039;-77
2024/01/11 10:23:28;;;;;;;19.37;8.70;;;;;;;5.70;71.32;100838.13;4997889;28;20118;-76
2024/01/11 10:25:57;;;;;;;18.73;8.50;;;;;;;5.90;71.63;100835.09;4998726;28;20096;-76
2024/01/11 10:28:25;;;;;;;20.55;8.68;;;;;;;6.08;71.19;100831.19;4994643;28;20026;-76
2024/01/11 10:30:54;;;;;;;19.25;9.38;;;;;;;6.31;69.23;100832.59;4999614;28;20054;-75
2024/01/11 10:33:23;;;;;;;17.85;8.13;;;;;;;6.40;69.35;100826.69;5001505;28;20057;-75
2024/01/11 10:35:49;;;;;;;20.10;8.83;;;;;;;6.50;68.04;100819.94;4995999;28;20033;-76
2024/01/11 10:38:16;;;;;;;19.63;9.75;;;;;;;6.49;67.46;100815.53;4999942;28;20486;-76
2024/01/11 10:40:41;;;;;;;19.38;8.60;;;;;;;6.45;68.45;100816.34;5002206;28;20137;-75
2024/01/11 10:43:11;;;;;;;20.10;9.52;;;;;;;6.36;68.43;100821.34;5002959;28;20162;-78
2024/01/11 10:45:38;;;;;;;18.77;9.17;;;;;;;6.25;67.49;100819.38;5005629;28;20041;-76
2024/01/11 10:48:07;;;;;;;17.13;8.05;;;;;;;6.19;68.04;100811.41;5003801;28;20030;-75
2024/01/11 10:50:39;;;;;;;18.88;8.48;;;;;;;6.17;68.96;100807.88;5002445;28;20030;-76
2024/01/11 10:53:39;;;;;;;18.85;8.70;;;;;;;6.20;68.77;100805.31;4991607;28;20379;-78
2024/01/11 10:56:06;;;;;;;18.15;8.80;;;;;;;6.19;68.79;100795.72;4991813;28;20026;-75
2024/01/11 10:58:35;;;;;;;19.00;9.00;;;;;;;6.29;68.52;100800.28;4993969;28;20050;-76
2024/01/11 11:01:01;;;;;;;19.17;9.68;;;;;;;6.43;67.76;100799.72;4997518;28;20039;-76
2024/01/11 11:03:31;;;;;;;20.65;9.40;;;;;;;6.47;67.62;100801.56;5000045;28;20065;-77
2024/01/11 11:05:58;;;;;;;20.20;8.45;;;;;;;6.44;67.04;100801.50;4997366;28;20407;-76
2024/01/11 11:08:26;;;;;;;19.60;8.70;;;;;;;6.46;67.00;100805.88;5005068;28;20177;-74
2024/01/11 11:10:59;;;;;;;19.53;8.43;;;;;;;6.63;67.80;100812.31;5006644;28;20045;-75
2024/01/11 11:13:25;;;;;;;20.45;9.52;;;;;;;6.85;67.54;100805.81;4993367;28;20101;-77
2024/01/11 11:15:52;;;;;;;19.98;8.57;;;;;;;7.01;65.99;100799.13;4994393;28;20034;-74